sensor_id;sensor_type;location;lat;lon;timestamp;pressure;altitude;pressure_sealevel;temperature;humidity
14067;BME280;7108;42.684;23.350;2023-02-04T00:00:44;95191.25;;;2.95;100.00
14067;BME280;7108;42.684;23.350;2023-02-04T00:03:10;95179.78;;;2.86;100.00
14067;BME280;7108;42.684;23.350;2023-02-04T00:05:36;95185.59;;;2.88;100.00
14067;BME280;7108;42.684;23.350;2023-02-04T00:08:02;95183.84;;;2.83;100.00
14067;BME280;7108;42.684;23.350;2023-02-04T00:10:28;95178.03;;;2.64;100.00
14067;BME280;7108;42.684;23.350;2023-02-04T00:12:53;95179.13;;;2.63;100.00
14067;BME280;7108;42.684;23.350;2023-02-04T00:15:19;95172.38;;;2.58;100.00
14067;BME280;7108;42.684;23.350;2023-02-04T00:17:44;95141.09;;;2.16;100.00
14067;BME280;7108;42.684;23.350;2023-02-04T00:20:10;95155.59;;;2.40;100.00
14067;BME280;7108;42.684;23.350;2023-02-04T00:22:35;95162.31;;;2.38;100.00
14067;BME280;7108;42.684;23.350;2023-02-04T00:25:01;95179.72;;;2.52;100.00
14067;BME280;7108;42.684;23.350;2023-02-04T00:27:26;95146.34;;;2.38;100.00
14067;BME280;7108;42.684;23.350;2023-02-04T00:29:52;95161.41;;;2.51;100.00
14067;BME280;7108;42.684;23.350;2023-02-04T00:32:17;95137.28;;;2.39;100.00
14067;BME280;7108;42.684;23.350;2023-02-04T00:34:42;95130.25;;;2.43;100.00
14067;BME280;7108;42.684;23.350;2023-02-04T00:37:08;95160.66;;;2.58;100.00
14067;BME280;7108;42.684;23.350;2023-02-04T00:39:33;95160.81;;;2.62;100.00
14067;BME280;7108;42.684;23.350;2023-02-04T00:41:59;95157.38;;;2.61;100.00
14067;BME280;7108;42.684;23.350;2023-02-04T00:44:24;95157.03;;;2.55;100.00
14067;BME280;7108;42.684;23.350;2023-02-04T00:46:50;95145.44;;;2.42;100.00
14067;BME280;7108;42.684;23.350;2023-02-04T00:49:15;95146.88;;;2.48;100.00
14067;BME280;7108;42.684;23.350;2023-02-04T00:51:41;95150.47;;;2.52;100.00
14067;BME280;7108;42.684;23.350;2023-02-04T00:54:10;95136.84;;;2.45;100.00
14067;BME280;7108;42.684;23.350;2023-02-04T00:56:36;95141.41;;;2.53;100.00
14067;BME280;7108;42.684;23.350;2023-02-04T00:59:01;95117.63;;;2.48;100.00
14067;BME280;7108;42.684;23.350;2023-02-04T01:01:27;95114.78;;;2.45;100.00
14067;BME280;7108;42.684;23.350;2023-02-04T01:03:53;95133.00;;;2.68;100.00
14067;BME280;7108;42.684;23.350;2023-02-04T01:06:19;95117.66;;;2.57;100.00
14067;BME280;7108;42.684;23.350;2023-02-04T01:08:45;95118.91;;;2.59;100.00
14067;BME280;7108;42.684;23.350;2023-02-04T01:11:10;95099.66;;;2.62;100.00
14067;BME280;7108;42.684;23.350;2023-02-04T01:13:36;95094.50;;;2.65;100.00
14067;BME280;7108;42.684;23.350;2023-02-04T01:16:01;95083.56;;;2.75;100.00
14067;BME280;7108;42.684;23.350;2023-02-04T01:18:26;95094.34;;;2.70;100.00
14067;BME280;7108;42.684;23.350;2023-02-04T01:20:52;95079.97;;;2.80;100.00
14067;BME280;7108;42.684;23.350;2023-02-04T01:23:17;95101.09;;;2.85;100.00
14067;BME280;7108;42.684;23.350;2023-02-04T01:25:43;95087.31;;;2.91;100.00
14067;BME280;7108;42.684;23.350;2023-02-04T01:28:08;95062.75;;;2.69;100.00
14067;BME280;7108;42.684;23.350;2023-02-04T01:30:34;95065.88;;;2.79;100.00
14067;BME280;7108;42.684;23.350;2023-02-04T01:32:59;95070.88;;;2.72;100.00
14067;BME280;7108;42.684;23.350;2023-02-04T01:35:25;95067.44;;;2.72;100.00
14067;BME280;7108;42.684;23.350;2023-02-04T01:37:50;95049.75;;;2.67;100.00
14067;BME280;7108;42.684;23.350;2023-02-04T01:40:16;95068.22;;;2.81;100.00
14067;BME280;7108;42.684;23.350;2023-02-04T01:42:42;95053.06;;;2.81;100.00
14067;BME280;7108;42.684;23.350;2023-02-04T01:45:08;95042.09;;;2.66;100.00
14067;BME280;7108;42.684;23.350;2023-02-04T01:47:34;95052.41;;;2.76;100.00
14067;BME280;7108;42.684;23.350;2023-02-04T01:49:59;95049.31;;;2.82;100.00
14067;BME280;7108;42.684;23.350;2023-02-04T01:52:34;95032.53;;;2.82;100.00
14067;BME280;7108;42.684;23.350;2023-02-04T01:55:01;95037.72;;;2.87;100.00
14067;BME280;7108;42.684;23.350;2023-02-04T01:57:27;95042.72;;;2.88;100.00
14067;BME280;7108;42.684;23.350;2023-02-04T01:59:54;95041.78;;;2.93;100.00
14067;BME280;7108;42.684;23.350;2023-02-04T02:02:44;95032.09;;;2.80;100.00
14067;BME280;7108;42.684;23.350;2023-02-04T02:05:14;95029.72;;;2.70;100.00
14067;BME280;7108;42.684;23.350;2023-02-04T02:07:40;95034.28;;;2.78;100.00
14067;BME280;7108;42.684;23.350;2023-02-04T02:10:08;95025.81;;;2.76;100.00
14067;BME280;7108;42.684;23.350;2023-02-04T02:12:34;95044.91;;;2.78;100.00
14067;BME280;7108;42.684;23.350;2023-02-04T02:15:00;95044.44;;;2.76;100.00
14067;BME280;7108;42.684;23.350;2023-02-04T02:17:25;95021.59;;;2.75;100.00
14067;BME280;7108;42.684;23.350;2023-02-04T02:19:51;95014.41;;;2.75;100.00
14067;BME280;7108;42.684;23.350;2023-02-04T02:22:32;95015.50;;;2.66;100.00
14067;BME280;7108;42.684;23.350;2023-02-04T02:25:00;95019.56;;;2.63;100.00
14067;BME280;7108;42.684;23.350;2023-02-04T02:27:26;94994.53;;;2.56;100.00
14067;BME280;7108;42.684;23.350;2023-02-04T02:29:51;94982.16;;;2.60;100.00
14067;BME280;7108;42.684;23.350;2023-02-04T02:32:17;94989.38;;;2.68;100.00
14067;BME280;7108;42.684;23.350;2023-02-04T02:34:43;94973.88;;;2.70;100.00
14067;BME280;7108;42.684;23.350;2023-02-04T02:37:10;94927.91;;;2.53;100.00
14067;BME280;7108;42.684;23.350;2023-02-04T02:39:38;94933.06;;;2.66;100.00
14067;BME280;7108;42.684;23.350;2023-02-04T02:42:05;94935.88;;;2.69;100.00
14067;BME280;7108;42.684;23.350;2023-02-04T02:44:31;94940.88;;;2.79;100.00
14067;BME280;7108;42.684;23.350;2023-02-04T02:46:57;94911.78;;;2.66;100.00
14067;BME280;7108;42.684;23.350;2023-02-04T02:49:23;94939.78;;;2.80;100.00
14067;BME280;7108;42.684;23.350;2023-02-04T02:51:49;94948.34;;;2.86;100.00
14067;BME280;7108;42.684;23.350;2023-02-04T02:54:29;94936.63;;;2.87;100.00
14067;BME280;7108;42.684;23.350;2023-02-04T02:56:55;94928.31;;;2.88;100.00
14067;BME280;7108;42.684;23.350;2023-02-04T02:59:22;94938.78;;;3.02;100.00
14067;BME280;7108;42.684;23.350;2023-02-04T03:01:50;94947.56;;;3.02;100.00
14067;BME280;7108;42.684;23.350;2023-02-04T03:04:19;94933.03;;;2.83;100.00
14067;BME280;7108;42.684;23.350;2023-02-04T03:06:46;94949.91;;;2.95;100.00
14067;BME280;7108;42.684;23.350;2023-02-04T03:09:11;94924.72;;;2.84;100.00
14067;BME280;7108;42.684;23.350;2023-02-04T03:11:37;94922.38;;;2.91;100.00
14067;BME280;7108;42.684;23.350;2023-02-04T03:14:03;94941.00;;;2.91;100.00
14067;BME280;7108;42.684;23.350;2023-02-04T03:16:31;94944.78;;;2.82;100.00
14067;BME280;7108;42.684;23.350;2023-02-04T03:19:02;94952.91;;;2.77;100.00
14067;BME280;7108;42.684;23.350;2023-02-04T03:21:29;94939.28;;;2.78;100.00
14067;BME280;7108;42.684;23.350;2023-02-04T03:23:55;94944.59;;;2.87;100.00
14067;BME280;7108;42.684;23.350;2023-02-04T03:26:25;94927.72;;;2.83;100.00
14067;BME280;7108;42.684;23.350;2023-02-04T03:28:52;94920.06;;;2.81;100.00
14067;BME280;7108;42.684;23.350;2023-02-04T03:31:18;94918.31;;;2.85;100.00
14067;BME280;7108;42.684;23.350;2023-02-04T03:33:44;94929.44;;;2.87;100.00
14067;BME280;7108;42.684;23.350;2023-02-04T03:36:09;94923.63;;;2.94;100.00
14067;BME280;7108;42.684;23.350;2023-02-04T03:38:35;94923.13;;;3.00;100.00
14067;BME280;7108;42.684;23.350;2023-02-04T03:41:01;94915.16;;;3.00;100.00
14067;BME280;7108;42.684;23.350;2023-02-04T03:43:26;94911.06;;;3.03;100.00
14067;BME280;7108;42.684;23.350;2023-02-04T03:45:51;94926.06;;;3.16;100.00
14067;BME280;7108;42.684;23.350;2023-02-04T03:48:17;94911.53;;;3.13;100.00
14067;BME280;7108;42.684;23.350;2023-02-04T03:50:42;94888.19;;;3.10;100.00
14067;BME280;7108;42.684;23.350;2023-02-04T03:53:08;94896.28;;;3.22;100.00
14067;BME280;7108;42.684;23.350;2023-02-04T03:55:34;94903.03;;;3.20;100.00
14067;BME280;7108;42.684;23.350;2023-02-04T03:58:01;94891.50;;;3.07;100.00
14067;BME280;7108;42.684;23.350;2023-02-04T04:00:26;94889.75;;;3.11;100.00
14067;BME280;7108;42.684;23.350;2023-02-04T04:02:52;94865.88;;;2.94;100.00
14067;BME280;7108;42.684;23.350;2023-02-04T04:05:17;94868.53;;;2.94;100.00
14067;BME280;7108;42.684;23.350;2023-02-04T04:07:43;94867.91;;;2.97;100.00
14067;BME280;7108;42.684;23.350;2023-02-04T04:10:10;94861.03;;;2.96;100.00
14067;BME280;7108;42.684;23.350;2023-02-04T04:12:36;94839.66;;;2.67;100.00
14067;BME280;7108;42.684;23.350;2023-02-04T04:15:02;94860.28;;;2.79;100.00
14067;BME280;7108;42.684;23.350;2023-02-04T04:17:27;94844.34;;;2.79;100.00
14067;BME280;7108;42.684;23.350;2023-02-04T04:19:53;94862.47;;;2.85;100.00
14067;BME280;7108;42.684;23.350;2023-02-04T04:22:18;94836.72;;;2.69;100.00
14067;BME280;7108;42.684;23.350;2023-02-04T04:24:43;94851.06;;;2.85;100.00
14067;BME280;7108;42.684;23.350;2023-02-04T04:27:09;94849.63;;;2.87;100.00
14067;BME280;7108;42.684;23.350;2023-02-04T04:29:35;94825.91;;;2.74;100.00
14067;BME280;7108;42.684;23.350;2023-02-04T04:32:00;94846.69;;;2.80;100.00
14067;BME280;7108;42.684;23.350;2023-02-04T04:34:25;94861.63;;;2.93;100.00
14067;BME280;7108;42.684;23.350;2023-02-04T04:36:51;94875.88;;;3.06;100.00
14067;BME280;7108;42.684;23.350;2023-02-04T04:39:16;94876.34;;;2.99;100.00
14067;BME280;7108;42.684;23.350;2023-02-04T04:41:42;94874.47;;;3.00;100.00
14067;BME280;7108;42.684;23.350;2023-02-04T04:44:07;94888.41;;;2.97;100.00
14067;BME280;7108;42.684;23.350;2023-02-04T04:46:32;94868.69;;;2.98;100.00
14067;BME280;7108;42.684;23.350;2023-02-04T04:48:58;94881.00;;;3.11;100.00
14067;BME280;7108;42.684;23.350;2023-02-04T04:51:23;94878.69;;;3.01;100.00
14067;BME280;7108;42.684;23.350;2023-02-04T04:53:49;94886.19;;;3.07;100.00
14067;BME280;7108;42.684;23.350;2023-02-04T04:56:15;94878.06;;;3.04;100.00
14067;BME280;7108;42.684;23.350;2023-02-04T04:58:40;94885.56;;;3.02;100.00
14067;BME280;7108;42.684;23.350;2023-02-04T05:01:06;94895.41;;;3.10;100.00
14067;BME280;7108;42.684;23.350;2023-02-04T05:03:31;94869.78;;;2.97;100.00
14067;BME280;7108;42.684;23.350;2023-02-04T05:05:56;94889.63;;;2.99;100.00
14067;BME280;7108;42.684;23.350;2023-02-04T05:08:22;94886.94;;;3.08;100.00
14067;BME280;7108;42.684;23.350;2023-02-04T05:10:47;94878.47;;;3.14;100.00
14067;BME280;7108;42.684;23.350;2023-02-04T05:13:13;94896.00;;;3.15;100.00
14067;BME280;7108;42.684;23.350;2023-02-04T05:15:39;94894.72;;;3.21;100.00
14067;BME280;7108;42.684;23.350;2023-02-04T05:18:04;94898.13;;;3.30;100.00
14067;BME280;7108;42.684;23.350;2023-02-04T05:20:30;94913.03;;;3.22;100.00
14067;BME280;7108;42.684;23.350;2023-02-04T05:22:55;94916.84;;;3.13;100.00
14067;BME280;7108;42.684;23.350;2023-02-04T05:25:22;94906.19;;;3.13;100.00
14067;BME280;7108;42.684;23.350;2023-02-04T05:27:48;94922.63;;;3.15;100.00
14067;BME280;7108;42.684;23.350;2023-02-04T05:30:13;94905.19;;;3.26;100.00
14067;BME280;7108;42.684;23.350;2023-02-04T05:32:39;94913.88;;;3.43;100.00
14067;BME280;7108;42.684;23.350;2023-02-04T05:35:05;94912.28;;;3.51;100.00
14067;BME280;7108;42.684;23.350;2023-02-04T05:37:31;94913.72;;;3.48;100.00
14067;BME280;7108;42.684;23.350;2023-02-04T05:39:56;94931.88;;;3.55;100.00
14067;BME280;7108;42.684;23.350;2023-02-04T05:42:22;94951.78;;;3.49;100.00
14067;BME280;7108;42.684;23.350;2023-02-04T05:44:47;94935.97;;;3.52;100.00
14067;BME280;7108;42.684;23.350;2023-02-04T05:47:13;94921.53;;;3.53;100.00
14067;BME280;7108;42.684;23.350;2023-02-04T05:49:39;94923.25;;;3.49;100.00
14067;BME280;7108;42.684;23.350;2023-02-04T05:52:04;94925.13;;;3.57;100.00
14067;BME280;7108;42.684;23.350;2023-02-04T05:54:30;94913.41;;;3.50;100.00
14067;BME280;7108;42.684;23.350;2023-02-04T05:56:55;94902.25;;;3.56;100.00
14067;BME280;7108;42.684;23.350;2023-02-04T05:59:20;94879.41;;;3.47;100.00
14067;BME280;7108;42.684;23.350;2023-02-04T06:01:46;94890.97;;;3.51;100.00
14067;BME280;7108;42.684;23.350;2023-02-04T06:04:11;94894.34;;;3.39;100.00
14067;BME280;7108;42.684;23.350;2023-02-04T06:06:37;94898.38;;;3.45;100.00
14067;BME280;7108;42.684;23.350;2023-02-04T06:09:02;94915.06;;;3.63;100.00
14067;BME280;7108;42.684;23.350;2023-02-04T06:11:28;94918.81;;;3.62;100.00
14067;BME280;7108;42.684;23.350;2023-02-04T06:13:53;94906.75;;;3.64;100.00
14067;BME280;7108;42.684;23.350;2023-02-04T06:16:19;94911.91;;;3.61;100.00
14067;BME280;7108;42.684;23.350;2023-02-04T06:18:44;94923.34;;;3.70;100.00
14067;BME280;7108;42.684;23.350;2023-02-04T06:21:10;94911.88;;;3.69;100.00
14067;BME280;7108;42.684;23.350;2023-02-04T06:23:35;94922.16;;;3.79;100.00
14067;BME280;7108;42.684;23.350;2023-02-04T06:26:01;94924.19;;;3.82;100.00
14067;BME280;7108;42.684;23.350;2023-02-04T06:28:29;94909.84;;;3.75;100.00
14067;BME280;7108;42.684;23.350;2023-02-04T06:30:57;94907.75;;;3.80;100.00
14067;BME280;7108;42.684;23.350;2023-02-04T06:33:25;94905.22;;;3.84;100.00
14067;BME280;7108;42.684;23.350;2023-02-04T06:35:51;94912.69;;;3.90;100.00
14067;BME280;7108;42.684;23.350;2023-02-04T06:38:17;94904.69;;;3.90;100.00
14067;BME280;7108;42.684;23.350;2023-02-04T06:40:43;94924.41;;;3.97;100.00
14067;BME280;7108;42.684;23.350;2023-02-04T06:43:09;94907.84;;;3.92;100.00
14067;BME280;7108;42.684;23.350;2023-02-04T06:45:34;94910.97;;;3.94;100.00
14067;BME280;7108;42.684;23.350;2023-02-04T06:48:00;94911.88;;;3.98;100.00
14067;BME280;7108;42.684;23.350;2023-02-04T06:50:25;94895.16;;;3.89;100.00
14067;BME280;7108;42.684;23.350;2023-02-04T06:52:51;94912.66;;;3.98;100.00
14067;BME280;7108;42.684;23.350;2023-02-04T06:55:16;94904.97;;;3.97;100.00
14067;BME280;7108;42.684;23.350;2023-02-04T06:57:42;94914.78;;;4.05;100.00
14067;BME280;7108;42.684;23.350;2023-02-04T07:00:11;94896.03;;;4.01;100.00
14067;BME280;7108;42.684;23.350;2023-02-04T07:02:37;94871.72;;;4.03;100.00
14067;BME280;7108;42.684;23.350;2023-02-04T07:05:04;94885.03;;;4.23;100.00
14067;BME280;7108;42.684;23.350;2023-02-04T07:07:29;94887.28;;;4.33;100.00
14067;BME280;7108;42.684;23.350;2023-02-04T07:09:55;94878.06;;;4.31;100.00
14067;BME280;7108;42.684;23.350;2023-02-04T07:12:20;94896.16;;;4.46;100.00
14067;BME280;7108;42.684;23.350;2023-02-04T07:14:46;94879.22;;;4.42;100.00
14067;BME280;7108;42.684;23.350;2023-02-04T07:17:11;94870.38;;;4.50;100.00
14067;BME280;7108;42.684;23.350;2023-02-04T07:19:37;94875.09;;;4.64;100.00
14067;BME280;7108;42.684;23.350;2023-02-04T07:22:03;94893.41;;;4.86;100.00
14067;BME280;7108;42.684;23.350;2023-02-04T07:24:29;94870.88;;;5.08;100.00
14067;BME280;7108;42.684;23.350;2023-02-04T07:26:54;94878.53;;;5.09;100.00
14067;BME280;7108;42.684;23.350;2023-02-04T07:29:20;94859.94;;;5.01;100.00
14067;BME280;7108;42.684;23.350;2023-02-04T07:31:46;94859.34;;;5.39;100.00
14067;BME280;7108;42.684;23.350;2023-02-04T07:34:12;94874.25;;;5.64;100.00
14067;BME280;7108;42.684;23.350;2023-02-04T07:36:38;94865.66;;;5.71;100.00
14067;BME280;7108;42.684;23.350;2023-02-04T07:39:05;94872.91;;;6.06;100.00
14067;BME280;7108;42.684;23.350;2023-02-04T07:41:30;94873.97;;;6.56;100.00
14067;BME280;7108;42.684;23.350;2023-02-04T07:43:56;94866.78;;;6.05;100.00
14067;BME280;7108;42.684;23.350;2023-02-04T07:46:24;94870.47;;;5.89;100.00
14067;BME280;7108;42.684;23.350;2023-02-04T07:48:50;94871.13;;;5.98;100.00
14067;BME280;7108;42.684;23.350;2023-02-04T07:51:15;94872.41;;;6.16;100.00
14067;BME280;7108;42.684;23.350;2023-02-04T07:53:40;94860.78;;;6.36;100.00
14067;BME280;7108;42.684;23.350;2023-02-04T07:56:06;94855.97;;;6.68;100.00
14067;BME280;7108;42.684;23.350;2023-02-04T07:58:31;94866.06;;;6.75;100.00
14067;BME280;7108;42.684;23.350;2023-02-04T08:00:57;94845.31;;;6.56;100.00
14067;BME280;7108;42.684;23.350;2023-02-04T08:03:22;94857.16;;;6.16;100.00
14067;BME280;7108;42.684;23.350;2023-02-04T08:05:48;94858.44;;;5.95;100.00
14067;BME280;7108;42.684;23.350;2023-02-04T08:08:13;94854.34;;;5.86;100.00
14067;BME280;7108;42.684;23.350;2023-02-04T08:10:39;94872.16;;;5.70;100.00
14067;BME280;7108;42.684;23.350;2023-02-04T08:13:05;94863.78;;;5.47;100.00
14067;BME280;7108;42.684;23.350;2023-02-04T08:15:33;94878.47;;;5.53;100.00
14067;BME280;7108;42.684;23.350;2023-02-04T08:17:59;94876.56;;;5.30;100.00
14067;BME280;7108;42.684;23.350;2023-02-04T08:20:24;94871.66;;;5.20;100.00
14067;BME280;7108;42.684;23.350;2023-02-04T08:22:49;94882.03;;;5.33;100.00
14067;BME280;7108;42.684;23.350;2023-02-04T08:25:15;94869.78;;;5.20;100.00
14067;BME280;7108;42.684;23.350;2023-02-04T08:27:40;94884.38;;;5.23;100.00
14067;BME280;7108;42.684;23.350;2023-02-04T08:30:07;94879.34;;;5.10;100.00
14067;BME280;7108;42.684;23.350;2023-02-04T08:32:32;94854.72;;;4.92;100.00
14067;BME280;7108;42.684;23.350;2023-02-04T08:34:58;94866.84;;;5.02;100.00
14067;BME280;7108;42.684;23.350;2023-02-04T08:37:23;94850.94;;;4.93;100.00
14067;BME280;7108;42.684;23.350;2023-02-04T08:39:49;94855.16;;;4.94;100.00
14067;BME280;7108;42.684;23.350;2023-02-04T08:42:15;94858.25;;;4.84;100.00
14067;BME280;7108;42.684;23.350;2023-02-04T08:44:41;94848.38;;;4.97;100.00
14067;BME280;7108;42.684;23.350;2023-02-04T08:47:07;94869.84;;;5.00;100.00
14067;BME280;7108;42.684;23.350;2023-02-04T08:49:32;94870.19;;;4.99;100.00
14067;BME280;7108;42.684;23.350;2023-02-04T08:51:58;94868.28;;;4.87;100.00
14067;BME280;7108;42.684;23.350;2023-02-04T08:54:23;94866.03;;;4.89;100.00
14067;BME280;7108;42.684;23.350;2023-02-04T08:56:50;94857.47;;;4.84;100.00
14067;BME280;7108;42.684;23.350;2023-02-04T08:59:16;94873.63;;;4.87;100.00
14067;BME280;7108;42.684;23.350;2023-02-04T09:01:41;94873.81;;;4.82;100.00
14067;BME280;7108;42.684;23.350;2023-02-04T09:04:07;94860.25;;;4.75;100.00
14067;BME280;7108;42.684;23.350;2023-02-04T09:06:32;94853.25;;;4.83;100.00
14067;BME280;7108;42.684;23.350;2023-02-04T09:08:58;94875.16;;;4.88;100.00
14067;BME280;7108;42.684;23.350;2023-02-04T09:11:23;94864.06;;;4.86;100.00
14067;BME280;7108;42.684;23.350;2023-02-04T09:13:49;94870.06;;;4.95;100.00
14067;BME280;7108;42.684;23.350;2023-02-04T09:16:14;94857.91;;;4.86;100.00
14067;BME280;7108;42.684;23.350;2023-02-04T09:18:42;94850.59;;;4.83;100.00
14067;BME280;7108;42.684;23.350;2023-02-04T09:21:07;94832.75;;;4.75;100.00
14067;BME280;7108;42.684;23.350;2023-02-04T09:23:33;94842.50;;;4.91;100.00
14067;BME280;7108;42.684;23.350;2023-02-04T09:25:58;94843.13;;;4.88;100.00
14067;BME280;7108;42.684;23.350;2023-02-04T09:28:25;94862.84;;;5.08;100.00
14067;BME280;7108;42.684;23.350;2023-02-04T09:30:51;94851.94;;;5.01;100.00
14067;BME280;7108;42.684;23.350;2023-02-04T09:33:16;94838.59;;;5.01;100.00
14067;BME280;7108;42.684;23.350;2023-02-04T09:35:42;94852.84;;;5.17;100.00
14067;BME280;7108;42.684;23.350;2023-02-04T09:38:07;94857.31;;;5.13;100.00
14067;BME280;7108;42.684;23.350;2023-02-04T09:40:36;94835.50;;;4.99;100.00
14067;BME280;7108;42.684;23.350;2023-02-04T09:43:05;94857.41;;;5.04;100.00
14067;BME280;7108;42.684;23.350;2023-02-04T09:45:34;94849.38;;;4.92;100.00
14067;BME280;7108;42.684;23.350;2023-02-04T09:48:03;94849.78;;;4.82;100.00
14067;BME280;7108;42.684;23.350;2023-02-04T09:50:29;94853.13;;;4.79;100.00
14067;BME280;7108;42.684;23.350;2023-02-04T09:53:03;94832.16;;;4.57;100.00
14067;BME280;7108;42.684;23.350;2023-02-04T09:55:33;94837.69;;;4.53;100.00
14067;BME280;7108;42.684;23.350;2023-02-04T09:57:59;94846.72;;;4.60;100.00
14067;BME280;7108;42.684;23.350;2023-02-04T10:00:28;94825.47;;;4.52;100.00
14067;BME280;7108;42.684;23.350;2023-02-04T10:02:56;94822.28;;;4.58;100.00
14067;BME280;7108;42.684;23.350;2023-02-04T10:05:28;94827.84;;;4.65;100.00
14067;BME280;7108;42.684;23.350;2023-02-04T10:07:54;94825.97;;;4.65;100.00
14067;BME280;7108;42.684;23.350;2023-02-04T10:10:21;94826.09;;;4.69;100.00
14067;BME280;7108;42.684;23.350;2023-02-04T10:12:55;94829.53;;;4.69;100.00
14067;BME280;7108;42.684;23.350;2023-02-04T10:15:21;94831.66;;;4.64;100.00
14067;BME280;7108;42.684;23.350;2023-02-04T10:17:57;94822.72;;;4.60;100.00
14067;BME280;7108;42.684;23.350;2023-02-04T10:20:26;94810.94;;;4.61;100.00
14067;BME280;7108;42.684;23.350;2023-02-04T10:22:53;94808.63;;;4.59;100.00
14067;BME280;7108;42.684;23.350;2023-02-04T10:25:21;94807.38;;;4.57;100.00
14067;BME280;7108;42.684;23.350;2023-02-04T10:30:21;94803.75;;;4.73;100.00
14067;BME280;7108;42.684;23.350;2023-02-04T10:32:47;94803.31;;;4.71;100.00
14067;BME280;7108;42.684;23.350;2023-02-04T10:35:15;94804.00;;;4.80;100.00
14067;BME280;7108;42.684;23.350;2023-02-04T10:37:41;94795.88;;;4.77;100.00
14067;BME280;7108;42.684;23.350;2023-02-04T10:40:34;94804.63;;;4.77;100.00
14067;BME280;7108;42.684;23.350;2023-02-04T10:43:08;94800.94;;;4.70;100.00
14067;BME280;7108;42.684;23.350;2023-02-04T10:45:35;94790.84;;;4.63;100.00
14067;BME280;7108;42.684;23.350;2023-02-04T10:48:00;94814.97;;;4.67;100.00
14067;BME280;7108;42.684;23.350;2023-02-04T10:50:27;94796.84;;;4.60;100.00
14067;BME280;7108;42.684;23.350;2023-02-04T10:52:56;94796.69;;;4.45;100.00
14067;BME280;7108;42.684;23.350;2023-02-04T10:55:46;94803.38;;;4.51;100.00
14067;BME280;7108;42.684;23.350;2023-02-04T10:58:16;94789.06;;;4.55;100.00
14067;BME280;7108;42.684;23.350;2023-02-04T11:00:43;94786.69;;;4.54;100.00
14067;BME280;7108;42.684;23.350;2023-02-04T11:03:27;94776.50;;;4.24;100.00
14067;BME280;7108;42.684;23.350;2023-02-04T11:05:56;94796.19;;;4.31;100.00
14067;BME280;7108;42.684;23.350;2023-02-04T11:08:24;94790.13;;;4.43;100.00
14067;BME280;7108;42.684;23.350;2023-02-04T11:10:57;94781.69;;;4.53;100.00
14067;BME280;7108;42.684;23.350;2023-02-04T11:13:42;94788.97;;;4.64;100.00
14067;BME280;7108;42.684;23.350;2023-02-04T11:18:50;94775.94;;;4.62;100.00
14067;BME280;7108;42.684;23.350;2023-02-04T11:29:23;94763.28;;;4.83;100.00
14067;BME280;7108;42.684;23.350;2023-02-04T11:39:35;94766.97;;;4.79;100.00
14067;BME280;7108;42.684;23.350;2023-02-04T11:42:02;94767.16;;;4.62;100.00
14067;BME280;7108;42.684;23.350;2023-02-04T11:44:28;94795.63;;;4.58;100.00
14067;BME280;7108;42.684;23.350;2023-02-04T11:46:55;94781.91;;;4.48;100.00
14067;BME280;7108;42.684;23.350;2023-02-04T11:49:23;94774.31;;;4.38;100.00
14067;BME280;7108;42.684;23.350;2023-02-04T11:52:06;94794.00;;;4.45;100.00
14067;BME280;7108;42.684;23.350;2023-02-04T11:54:36;94778.44;;;4.35;100.00
14067;BME280;7108;42.684;23.350;2023-02-04T11:57:01;94792.34;;;4.41;100.00
14067;BME280;7108;42.684;23.350;2023-02-04T11:59:27;94780.28;;;4.23;100.00
14067;BME280;7108;42.684;23.350;2023-02-04T12:02:16;94785.47;;;4.52;100.00
14067;BME280;7108;42.684;23.350;2023-02-04T12:05:09;94786.47;;;4.59;100.00
14067;BME280;7108;42.684;23.350;2023-02-04T12:07:35;94760.81;;;4.54;100.00
14067;BME280;7108;42.684;23.350;2023-02-04T12:10:21;94765.81;;;4.56;100.00
14067;BME280;7108;42.684;23.350;2023-02-04T12:12:53;94772.91;;;4.52;100.00
14067;BME280;7108;42.684;23.350;2023-02-04T12:15:24;94765.97;;;4.39;100.00
14067;BME280;7108;42.684;23.350;2023-02-04T12:18:00;94764.31;;;4.35;100.00
14067;BME280;7108;42.684;23.350;2023-02-04T12:20:26;94772.19;;;4.31;100.00
14067;BME280;7108;42.684;23.350;2023-02-04T12:22:52;94789.97;;;4.27;100.00
14067;BME280;7108;42.684;23.350;2023-02-04T12:25:17;94750.81;;;4.19;100.00
14067;BME280;7108;42.684;23.350;2023-02-04T12:27:44;94772.75;;;4.37;100.00
14067;BME280;7108;42.684;23.350;2023-02-04T12:30:10;94770.34;;;4.44;100.00
14067;BME280;7108;42.684;23.350;2023-02-04T12:32:36;94764.00;;;4.36;100.00
14067;BME280;7108;42.684;23.350;2023-02-04T12:35:02;94763.19;;;4.36;100.00
14067;BME280;7108;42.684;23.350;2023-02-04T12:37:27;94757.56;;;4.37;100.00
14067;BME280;7108;42.684;23.350;2023-02-04T12:39:53;94777.75;;;4.38;100.00
14067;BME280;7108;42.684;23.350;2023-02-04T12:42:18;94772.84;;;4.28;100.00
14067;BME280;7108;42.684;23.350;2023-02-04T12:44:44;94761.38;;;4.16;100.00
14067;BME280;7108;42.684;23.350;2023-02-04T12:47:09;94761.06;;;4.17;100.00
14067;BME280;7108;42.684;23.350;2023-02-04T12:49:34;94761.06;;;4.29;100.00
14067;BME280;7108;42.684;23.350;2023-02-04T12:52:05;94762.97;;;4.29;100.00
14067;BME280;7108;42.684;23.350;2023-02-04T12:54:30;94752.75;;;4.31;100.00
14067;BME280;7108;42.684;23.350;2023-02-04T12:56:56;94757.44;;;4.34;100.00
14067;BME280;7108;42.684;23.350;2023-02-04T12:59:23;94748.13;;;4.40;100.00
14067;BME280;7108;42.684;23.350;2023-02-04T13:01:49;94739.00;;;4.41;100.00
14067;BME280;7108;42.684;23.350;2023-02-04T13:04:14;94752.44;;;4.44;100.00
14067;BME280;7108;42.684;23.350;2023-02-04T13:06:40;94757.47;;;4.46;100.00
14067;BME280;7108;42.684;23.350;2023-02-04T13:09:05;94751.03;;;4.58;100.00
14067;BME280;7108;42.684;23.350;2023-02-04T13:11:31;94752.47;;;4.56;100.00
14067;BME280;7108;42.684;23.350;2023-02-04T13:13:56;94757.47;;;4.57;100.00
14067;BME280;7108;42.684;23.350;2023-02-04T13:16:22;94751.38;;;4.57;100.00
14067;BME280;7108;42.684;23.350;2023-02-04T13:18:49;94743.59;;;4.52;100.00